sensor_id;sensor_type;location;lat;lon;timestamp;temperature;humidity
15160;DHT22;7680;48.800;9.680;2023-07-30T00:00:58;17.40;99.90
15160;DHT22;7680;48.800;9.680;2023-07-30T00:06:01;17.40;99.90
15160;DHT22;7680;48.800;9.680;2023-07-30T00:11:05;17.50;99.90
15160;DHT22;7680;48.800;9.680;2023-07-30T00:16:10;17.20;99.90
15160;DHT22;7680;48.800;9.680;2023-07-30T00:21:14;17.20;99.90
15160;DHT22;7680;48.800;9.680;2023-07-30T00:26:17;17.10;99.90
15160;DHT22;7680;48.800;9.680;2023-07-30T00:31:21;17.10;99.90
15160;DHT22;7680;48.800;9.680;2023-07-30T00:36:25;16.70;99.90
15160;DHT22;7680;48.800;9.680;2023-07-30T00:41:28;16.50;99.90
15160;DHT22;7680;48.800;9.680;2023-07-30T00:46:33;16.50;99.90
15160;DHT22;7680;48.800;9.680;2023-07-30T00:51:37;16.50;99.90
15160;DHT22;7680;48.800;9.680;2023-07-30T00:56:47;16.30;99.90
15160;DHT22;7680;48.800;9.680;2023-07-30T01:01:54;16.40;99.90
15160;DHT22;7680;48.800;9.680;2023-07-30T01:06:59;16.20;99.90
15160;DHT22;7680;48.800;9.680;2023-07-30T01:12:03;16.10;99.90
15160;DHT22;7680;48.800;9.680;2023-07-30T01:17:09;16.20;99.90
15160;DHT22;7680;48.800;9.680;2023-07-30T01:22:15;16.30;99.90
15160;DHT22;7680;48.800;9.680;2023-07-30T01:27:23;16.50;99.90
15160;DHT22;7680;48.800;9.680;2023-07-30T01:32:28;16.30;99.90
15160;DHT22;7680;48.800;9.680;2023-07-30T01:37:34;16.20;99.90
15160;DHT22;7680;48.800;9.680;2023-07-30T01:42:38;16.00;99.90
15160;DHT22;7680;48.800;9.680;2023-07-30T01:47:41;16.00;99.90
15160;DHT22;7680;48.800;9.680;2023-07-30T01:52:46;16.00;99.90
15160;DHT22;7680;48.800;9.680;2023-07-30T01:57:49;16.10;99.90
15160;DHT22;7680;48.800;9.680;2023-07-30T02:02:53;16.00;99.90
15160;DHT22;7680;48.800;9.680;2023-07-30T02:07:58;16.00;99.90
15160;DHT22;7680;48.800;9.680;2023-07-30T02:13:01;16.00;99.90
15160;DHT22;7680;48.800;9.680;2023-07-30T02:18:04;16.00;99.90
15160;DHT22;7680;48.800;9.680;2023-07-30T02:23:09;16.10;99.90
15160;DHT22;7680;48.800;9.680;2023-07-30T02:28:12;16.20;99.90
15160;DHT22;7680;48.800;9.680;2023-07-30T02:33:16;16.30;99.90
15160;DHT22;7680;48.800;9.680;2023-07-30T02:38:20;16.40;99.90
15160;DHT22;7680;48.800;9.680;2023-07-30T02:43:24;16.30;99.90
15160;DHT22;7680;48.800;9.680;2023-07-30T02:48:27;16.30;99.90
15160;DHT22;7680;48.800;9.680;2023-07-30T02:53:31;16.30;99.90
15160;DHT22;7680;48.800;9.680;2023-07-30T02:58:34;16.10;99.90
15160;DHT22;7680;48.800;9.680;2023-07-30T03:03:37;16.20;99.90
15160;DHT22;7680;48.800;9.680;2023-07-30T03:08:42;16.30;99.90
15160;DHT22;7680;48.800;9.680;2023-07-30T03:13:45;16.10;99.90
15160;DHT22;7680;48.800;9.680;2023-07-30T03:18:48;16.10;99.90
15160;DHT22;7680;48.800;9.680;2023-07-30T03:23:53;16.20;99.90
15160;DHT22;7680;48.800;9.680;2023-07-30T03:28:56;16.20;99.90
15160;DHT22;7680;48.800;9.680;2023-07-30T03:33:59;16.20;99.90
15160;DHT22;7680;48.800;9.680;2023-07-30T03:39:04;16.20;99.90
15160;DHT22;7680;48.800;9.680;2023-07-30T03:44:07;16.30;99.90
15160;DHT22;7680;48.800;9.680;2023-07-30T03:49:10;16.30;99.90
15160;DHT22;7680;48.800;9.680;2023-07-30T03:54:15;16.30;99.90
15160;DHT22;7680;48.800;9.680;2023-07-30T03:59:18;16.30;99.90
15160;DHT22;7680;48.800;9.680;2023-07-30T04:04:21;16.20;99.90
15160;DHT22;7680;48.800;9.680;2023-07-30T04:09:25;16.30;99.90
15160;DHT22;7680;48.800;9.680;2023-07-30T04:14:29;16.30;99.90
15160;DHT22;7680;48.800;9.680;2023-07-30T04:19:32;16.20;99.90
15160;DHT22;7680;48.800;9.680;2023-07-30T04:24:36;16.30;99.90
15160;DHT22;7680;48.800;9.680;2023-07-30T04:29:40;16.30;99.90
15160;DHT22;7680;48.800;9.680;2023-07-30T04:34:43;16.30;99.90
15160;DHT22;7680;48.800;9.680;2023-07-30T04:39:47;16.40;99.90
15160;DHT22;7680;48.800;9.680;2023-07-30T04:44:51;16.60;99.90
15160;DHT22;7680;48.800;9.680;2023-07-30T04:49:54;16.70;99.90
15160;DHT22;7680;48.800;9.680;2023-07-30T04:54:58;16.80;99.90
15160;DHT22;7680;48.800;9.680;2023-07-30T05:00:02;16.80;99.90
15160;DHT22;7680;48.800;9.680;2023-07-30T05:05:06;17.00;99.90
15160;DHT22;7680;48.800;9.680;2023-07-30T05:10:11;17.10;99.90
15160;DHT22;7680;48.800;9.680;2023-07-30T05:15:14;17.20;99.90
15160;DHT22;7680;48.800;9.680;2023-07-30T05:20:17;17.40;99.90
15160;DHT22;7680;48.800;9.680;2023-07-30T05:25:22;17.40;99.90
15160;DHT22;7680;48.800;9.680;2023-07-30T05:30:25;17.30;99.90
15160;DHT22;7680;48.800;9.680;2023-07-30T05:35:28;17.20;99.90
15160;DHT22;7680;48.800;9.680;2023-07-30T05:40:35;17.20;99.90
15160;DHT22;7680;48.800;9.680;2023-07-30T05:45:41;17.30;99.90
15160;DHT22;7680;48.800;9.680;2023-07-30T05:50:44;17.40;99.90
15160;DHT22;7680;48.800;9.680;2023-07-30T05:55:48;17.40;99.90
15160;DHT22;7680;48.800;9.680;2023-07-30T06:00:52;17.50;99.90
15160;DHT22;7680;48.800;9.680;2023-07-30T06:05:55;17.50;99.90
15160;DHT22;7680;48.800;9.680;2023-07-30T06:11:02;17.50;99.90
15160;DHT22;7680;48.800;9.680;2023-07-30T06:16:05;17.60;99.90
15160;DHT22;7680;48.800;9.680;2023-07-30T06:21:09;17.70;99.90
15160;DHT22;7680;48.800;9.680;2023-07-30T06:26:13;17.80;99.90
15160;DHT22;7680;48.800;9.680;2023-07-30T06:31:16;17.80;99.90
15160;DHT22;7680;48.800;9.680;2023-07-30T06:36:19;17.90;99.90
15160;DHT22;7680;48.800;9.680;2023-07-30T06:41:24;18.10;99.90
15160;DHT22;7680;48.800;9.680;2023-07-30T06:46:28;18.10;99.90
15160;DHT22;7680;48.800;9.680;2023-07-30T06:51:31;18.20;99.90
15160;DHT22;7680;48.800;9.680;2023-07-30T06:56:36;18.70;99.90
15160;DHT22;7680;48.800;9.680;2023-07-30T07:01:39;19.10;99.90
15160;DHT22;7680;48.800;9.680;2023-07-30T07:06:43;19.20;99.90
15160;DHT22;7680;48.800;9.680;2023-07-30T07:11:47;19.40;99.90
15160;DHT22;7680;48.800;9.680;2023-07-30T07:16:53;19.40;99.90
15160;DHT22;7680;48.800;9.680;2023-07-30T07:21:57;19.50;99.90
15160;DHT22;7680;48.800;9.680;2023-07-30T07:27:02;19.40;99.90
15160;DHT22;7680;48.800;9.680;2023-07-30T07:32:06;19.20;99.90
15160;DHT22;7680;48.800;9.680;2023-07-30T07:37:09;19.20;99.90
15160;DHT22;7680;48.800;9.680;2023-07-30T07:42:14;19.50;99.90
15160;DHT22;7680;48.800;9.680;2023-07-30T07:47:17;19.60;99.90
15160;DHT22;7680;48.800;9.680;2023-07-30T07:52:21;19.70;99.90
15160;DHT22;7680;48.800;9.680;2023-07-30T07:57:25;19.60;99.90
15160;DHT22;7680;48.800;9.680;2023-07-30T08:02:29;19.50;99.90
15160;DHT22;7680;48.800;9.680;2023-07-30T08:07:32;19.40;99.90
15160;DHT22;7680;48.800;9.680;2023-07-30T08:12:36;19.40;99.90
15160;DHT22;7680;48.800;9.680;2023-07-30T08:17:40;19.50;99.90
15160;DHT22;7680;48.800;9.680;2023-07-30T08:22:43;19.80;99.90
15160;DHT22;7680;48.800;9.680;2023-07-30T08:27:48;19.60;99.90
15160;DHT22;7680;48.800;9.680;2023-07-30T08:32:51;19.10;99.90
15160;DHT22;7680;48.800;9.680;2023-07-30T08:37:54;18.70;99.90
15160;DHT22;7680;48.800;9.680;2023-07-30T08:43:02;18.60;99.90
15160;DHT22;7680;48.800;9.680;2023-07-30T08:48:06;18.70;99.90
15160;DHT22;7680;48.800;9.680;2023-07-30T08:53:10;18.80;99.90
15160;DHT22;7680;48.800;9.680;2023-07-30T08:58:17;18.80;99.90
15160;DHT22;7680;48.800;9.680;2023-07-30T09:03:21;19.00;99.90
15160;DHT22;7680;48.800;9.680;2023-07-30T09:08:25;19.10;99.90
15160;DHT22;7680;48.800;9.680;2023-07-30T09:13:29;19.40;99.90
15160;DHT22;7680;48.800;9.680;2023-07-30T09:18:39;19.60;99.90
15160;DHT22;7680;48.800;9.680;2023-07-30T09:23:44;19.80;99.90
15160;DHT22;7680;48.800;9.680;2023-07-30T09:28:50;19.90;99.90
15160;DHT22;7680;48.800;9.680;2023-07-30T09:33:53;20.20;99.90
15160;DHT22;7680;48.800;9.680;2023-07-30T09:38:58;20.50;99.90
15160;DHT22;7680;48.800;9.680;2023-07-30T09:44:03;20.60;99.90
15160;DHT22;7680;48.800;9.680;2023-07-30T09:49:08;20.70;99.90
15160;DHT22;7680;48.800;9.680;2023-07-30T09:54:12;21.00;99.90
15160;DHT22;7680;48.800;9.680;2023-07-30T09:59:17;20.60;99.90
15160;DHT22;7680;48.800;9.680;2023-07-30T10:04:21;20.40;99.90
15160;DHT22;7680;48.800;9.680;2023-07-30T10:09:29;20.20;99.90
15160;DHT22;7680;48.800;9.680;2023-07-30T10:14:35;20.10;99.90
15160;DHT22;7680;48.800;9.680;2023-07-30T10:19:39;19.90;99.90
15160;DHT22;7680;48.800;9.680;2023-07-30T10:24:55;19.70;99.90
15160;DHT22;7680;48.800;9.680;2023-07-30T10:30:11;19.70;99.90
15160;DHT22;7680;48.800;9.680;2023-07-30T10:35:40;19.60;99.90
15160;DHT22;7680;48.800;9.680;2023-07-30T10:40:59;19.60;99.90
15160;DHT22;7680;48.800;9.680;2023-07-30T10:46:05;19.70;99.90
15160;DHT22;7680;48.800;9.680;2023-07-30T10:51:12;19.80;99.90
15160;DHT22;7680;48.800;9.680;2023-07-30T10:56:17;19.90;99.90
15160;DHT22;7680;48.800;9.680;2023-07-30T11:01:24;20.10;99.90
15160;DHT22;7680;48.800;9.680;2023-07-30T11:06:28;20.60;99.90
15160;DHT22;7680;48.800;9.680;2023-07-30T11:11:31;21.00;99.90
15160;DHT22;7680;48.800;9.680;2023-07-30T11:16:36;21.30;99.90
15160;DHT22;7680;48.800;9.680;2023-07-30T11:21:44;21.60;99.90
15160;DHT22;7680;48.800;9.680;2023-07-30T11:26:57;22.00;99.90
15160;DHT22;7680;48.800;9.680;2023-07-30T11:32:02;21.90;99.90
15160;DHT22;7680;48.800;9.680;2023-07-30T11:37:06;21.90;99.90
15160;DHT22;7680;48.800;9.680;2023-07-30T11:42:10;22.00;99.90
15160;DHT22;7680;48.800;9.680;2023-07-30T11:47:20;21.40;99.90
15160;DHT22;7680;48.800;9.680;2023-07-30T11:52:24;21.20;99.90
15160;DHT22;7680;48.800;9.680;2023-07-30T11:57:33;21.20;99.90
15160;DHT22;7680;48.800;9.680;2023-07-30T12:02:39;21.50;99.90
15160;DHT22;7680;48.800;9.680;2023-07-30T12:07:42;21.80;99.90
15160;DHT22;7680;48.800;9.680;2023-07-30T12:12:45;21.50;99.90
15160;DHT22;7680;48.800;9.680;2023-07-30T12:17:50;21.50;99.90
15160;DHT22;7680;48.800;9.680;2023-07-30T12:22:53;21.40;99.90
15160;DHT22;7680;48.800;9.680;2023-07-30T12:27:56;21.50;99.90
15160;DHT22;7680;48.800;9.680;2023-07-30T12:33:01;21.40;99.90
15160;DHT22;7680;48.800;9.680;2023-07-30T12:38:04;21.30;99.90
15160;DHT22;7680;48.800;9.680;2023-07-30T12:43:08;21.40;99.90
15160;DHT22;7680;48.800;9.680;2023-07-30T12:48:12;21.40;99.90
15160;DHT22;7680;48.800;9.680;2023-07-30T12:53:16;21.50;99.90
15160;DHT22;7680;48.800;9.680;2023-07-30T12:58:19;21.40;99.90
15160;DHT22;7680;48.800;9.680;2023-07-30T13:03:23;21.70;99.90
15160;DHT22;7680;48.800;9.680;2023-07-30T13:08:27;21.90;99.90
15160;DHT22;7680;48.800;9.680;2023-07-30T13:13:30;22.10;99.90
15160;DHT22;7680;48.800;9.680;2023-07-30T13:18:35;22.10;99.90
15160;DHT22;7680;48.800;9.680;2023-07-30T13:23:38;22.40;99.90
15160;DHT22;7680;48.800;9.680;2023-07-30T13:28:41;22.00;99.90
15160;DHT22;7680;48.800;9.680;2023-07-30T13:33:46;21.90;99.90
15160;DHT22;7680;48.800;9.680;2023-07-30T13:38:49;22.00;99.90
15160;DHT22;7680;48.800;9.680;2023-07-30T13:43:53;22.10;99.90
15160;DHT22;7680;48.800;9.680;2023-07-30T13:48:57;22.40;99.90
15160;DHT22;7680;48.800;9.680;2023-07-30T13:54:01;22.50;99.90
15160;DHT22;7680;48.800;9.680;2023-07-30T13:59:04;22.40;99.90
15160;DHT22;7680;48.800;9.680;2023-07-30T14:04:09;22.20;99.90
15160;DHT22;7680;48.800;9.680;2023-07-30T14:09:12;22.50;99.90
15160;DHT22;7680;48.800;9.680;2023-07-30T14:14:15;22.70;99.90
15160;DHT22;7680;48.800;9.680;2023-07-30T14:19:20;22.40;99.90
15160;DHT22;7680;48.800;9.680;2023-07-30T14:24:23;22.50;99.90
15160;DHT22;7680;48.800;9.680;2023-07-30T14:29:26;22.40;99.90
15160;DHT22;7680;48.800;9.680;2023-07-30T14:34:31;22.70;99.90
15160;DHT22;7680;48.800;9.680;2023-07-30T14:39:34;22.90;99.90
15160;DHT22;7680;48.800;9.680;2023-07-30T14:44:37;22.70;99.90
15160;DHT22;7680;48.800;9.680;2023-07-30T14:49:42;22.70;99.90
15160;DHT22;7680;48.800;9.680;2023-07-30T14:54:45;22.70;99.90
15160;DHT22;7680;48.800;9.680;2023-07-30T14:59:49;22.40;99.90
15160;DHT22;7680;48.800;9.680;2023-07-30T15:04:53;22.30;99.90
15160;DHT22;7680;48.800;9.680;2023-07-30T15:09:57;22.50;99.90
15160;DHT22;7680;48.800;9.680;2023-07-30T15:15:00;22.50;99.90
15160;DHT22;7680;48.800;9.680;2023-07-30T15:20:05;22.40;99.90
15160;DHT22;7680;48.800;9.680;2023-07-30T15:25:09;22.20;99.90
15160;DHT22;7680;48.800;9.680;2023-07-30T15:30:12;22.40;99.90
15160;DHT22;7680;48.800;9.680;2023-07-30T15:35:17;22.40;99.90
15160;DHT22;7680;48.800;9.680;2023-07-30T15:40:20;22.40;99.90
15160;DHT22;7680;48.800;9.680;2023-07-30T15:45:24;22.20;99.90
15160;DHT22;7680;48.800;9.680;2023-07-30T15:50:28;22.30;99.90
15160;DHT22;7680;48.800;9.680;2023-07-30T15:55:32;22.40;99.90
15160;DHT22;7680;48.800;9.680;2023-07-30T16:00:36;22.50;98.40
15160;DHT22;7680;48.800;9.680;2023-07-30T16:05:46;22.50;98.60
15160;DHT22;7680;48.800;9.680;2023-07-30T16:10:50;22.50;97.00
15160;DHT22;7680;48.800;9.680;2023-07-30T16:15:53;22.40;97.90
15160;DHT22;7680;48.800;9.680;2023-07-30T16:21:02;22.30;98.50
15160;DHT22;7680;48.800;9.680;2023-07-30T16:26:05;22.20;98.50
15160;DHT22;7680;48.800;9.680;2023-07-30T16:31:08;22.30;97.60
15160;DHT22;7680;48.800;9.680;2023-07-30T16:36:13;22.40;97.70
15160;DHT22;7680;48.800;9.680;2023-07-30T16:41:16;22.20;97.00
15160;DHT22;7680;48.800;9.680;2023-07-30T16:46:19;22.00;98.40
15160;DHT22;7680;48.800;9.680;2023-07-30T16:51:24;22.00;96.90
15160;DHT22;7680;48.800;9.680;2023-07-30T16:56:27;21.80;96.40
15160;DHT22;7680;48.800;9.680;2023-07-30T17:01:31;21.80;96.60
15160;DHT22;7680;48.800;9.680;2023-07-30T17:06:36;21.40;96.80
15160;DHT22;7680;48.800;9.680;2023-07-30T17:11:40;21.20;97.30
15160;DHT22;7680;48.800;9.680;2023-07-30T17:16:43;21.00;97.10
15160;DHT22;7680;48.800;9.680;2023-07-30T17:21:48;20.70;97.00
15160;DHT22;7680;48.800;9.680;2023-07-30T17:26:51;20.60;97.40
15160;DHT22;7680;48.800;9.680;2023-07-30T17:31:54;20.30;96.70
15160;DHT22;7680;48.800;9.680;2023-07-30T17:36:59;20.20;97.30
15160;DHT22;7680;48.800;9.680;2023-07-30T17:42:03;20.20;98.40
15160;DHT22;7680;48.800;9.680;2023-07-30T17:47:06;20.10;98.50
15160;DHT22;7680;48.800;9.680;2023-07-30T17:52:11;20.10;99.10
15160;DHT22;7680;48.800;9.680;2023-07-30T17:57:14;20.00;99.90
15160;DHT22;7680;48.800;9.680;2023-07-30T18:02:17;19.90;98.90
15160;DHT22;7680;48.800;9.680;2023-07-30T18:07:22;19.90;99.60
15160;DHT22;7680;48.800;9.680;2023-07-30T18:12:25;19.80;99.90
15160;DHT22;7680;48.800;9.680;2023-07-30T18:17:29;19.80;99.90
15160;DHT22;7680;48.800;9.680;2023-07-30T18:22:33;19.60;99.20
15160;DHT22;7680;48.800;9.680;2023-07-30T18:27:40;19.50;99.90
15160;DHT22;7680;48.800;9.680;2023-07-30T18:32:44;19.40;99.50
15160;DHT22;7680;48.800;9.680;2023-07-30T18:37:48;19.10;99.90
15160;DHT22;7680;48.800;9.680;2023-07-30T18:42:52;19.00;99.40
15160;DHT22;7680;48.800;9.680;2023-07-30T18:47:55;19.00;99.90
15160;DHT22;7680;48.800;9.680;2023-07-30T18:53:00;18.80;99.90
15160;DHT22;7680;48.800;9.680;2023-07-30T18:58:04;18.60;99.90
15160;DHT22;7680;48.800;9.680;2023-07-30T19:03:07;18.50;99.90
15160;DHT22;7680;48.800;9.680;2023-07-30T19:08:14;18.40;99.90
15160;DHT22;7680;48.800;9.680;2023-07-30T19:13:17;18.30;99.90
15160;DHT22;7680;48.800;9.680;2023-07-30T19:18:20;18.20;99.90
15160;DHT22;7680;48.800;9.680;2023-07-30T19:23:25;18.20;99.90
15160;DHT22;7680;48.800;9.680;2023-07-30T19:28:28;18.00;99.90
15160;DHT22;7680;48.800;9.680;2023-07-30T19:33:31;17.90;99.90
15160;DHT22;7680;48.800;9.680;2023-07-30T19:38:36;17.80;99.90
15160;DHT22;7680;48.800;9.680;2023-07-30T19:43:40;17.70;99.90
15160;DHT22;7680;48.800;9.680;2023-07-30T19:48:43;17.60;99.90
15160;DHT22;7680;48.800;9.680;2023-07-30T19:53:48;17.50;99.90
15160;DHT22;7680;48.800;9.680;2023-07-30T19:58:51;17.40;99.90
15160;DHT22;7680;48.800;9.680;2023-07-30T20:03:55;17.30;99.90
15160;DHT22;7680;48.800;9.680;2023-07-30T20:09:00;17.20;99.90
15160;DHT22;7680;48.800;9.680;2023-07-30T20:14:04;17.20;99.90
15160;DHT22;7680;48.800;9.680;2023-07-30T20:19:08;17.00;99.90
15160;DHT22;7680;48.800;9.680;2023-07-30T20:24:13;17.00;99.90
15160;DHT22;7680;48.800;9.680;2023-07-30T20:29:16;16.90;99.90
15160;DHT22;7680;48.800;9.680;2023-07-30T20:34:20;16.90;99.90
15160;DHT22;7680;48.800;9.680;2023-07-30T20:39:24;16.70;99.90
15160;DHT22;7680;48.800;9.680;2023-07-30T20:44:27;16.50;99.90
15160;DHT22;7680;48.800;9.680;2023-07-30T20:49:31;16.50;99.90
15160;DHT22;7680;48.800;9.680;2023-07-30T20:54:36;16.40;99.90
15160;DHT22;7680;48.800;9.680;2023-07-30T20:59:40;16.30;99.90
15160;DHT22;7680;48.800;9.680;2023-07-30T21:04:43;16.20;99.90
15160;DHT22;7680;48.800;9.680;2023-07-30T21:09:48;16.20;99.90
15160;DHT22;7680;48.800;9.680;2023-07-30T21:14:51;16.10;99.90
15160;DHT22;7680;48.800;9.680;2023-07-30T21:19:54;16.00;99.90
15160;DHT22;7680;48.800;9.680;2023-07-30T21:24:59;15.90;99.90
15160;DHT22;7680;48.800;9.680;2023-07-30T21:30:02;15.80;99.90
15160;DHT22;7680;48.800;9.680;2023-07-30T21:35:07;15.80;99.90
15160;DHT22;7680;48.800;9.680;2023-07-30T21:40:12;15.70;99.90
15160;DHT22;7680;48.800;9.680;2023-07-30T21:45:15;15.50;99.90
15160;DHT22;7680;48.800;9.680;2023-07-30T21:50:18;15.30;99.90
15160;DHT22;7680;48.800;9.680;2023-07-30T21:55:23;15.20;99.90
15160;DHT22;7680;48.800;9.680;2023-07-30T22:00:27;15.10;99.90
15160;DHT22;7680;48.800;9.680;2023-07-30T22:05:30;15.00;99.90
15160;DHT22;7680;48.800;9.680;2023-07-30T22:10:40;14.90;99.90
15160;DHT22;7680;48.800;9.680;2023-07-30T22:15:44;14.90;99.90
15160;DHT22;7680;48.800;9.680;2023-07-30T22:20:48;14.80;99.90
15160;DHT22;7680;48.800;9.680;2023-07-30T22:25:52;14.70;99.90
15160;DHT22;7680;48.800;9.680;2023-07-30T22:30:55;14.70;99.90
15160;DHT22;7680;48.800;9.680;2023-07-30T22:35:59;14.60;99.90
15160;DHT22;7680;48.800;9.680;2023-07-30T22:41:03;14.50;99.90
15160;DHT22;7680;48.800;9.680;2023-07-30T22:46:06;14.40;99.90
15160;DHT22;7680;48.800;9.680;2023-07-30T22:51:10;14.30;99.90
15160;DHT22;7680;48.800;9.680;2023-07-30T22:56:14;14.30;99.90
15160;DHT22;7680;48.800;9.680;2023-07-30T23:01:18;14.20;99.90
15160;DHT22;7680;48.800;9.680;2023-07-30T23:06:21;14.10;99.90
15160;DHT22;7680;48.800;9.680;2023-07-30T23:11:25;14.00;99.90
15160;DHT22;7680;48.800;9.680;2023-07-30T23:16:30;14.10;99.90
15160;DHT22;7680;48.800;9.680;2023-07-30T23:21:34;14.10;99.90
15160;DHT22;7680;48.800;9.680;2023-07-30T23:26:38;14.00;99.90
15160;DHT22;7680;48.800;9.680;2023-07-30T23:31:42;14.00;99.90
15160;DHT22;7680;48.800;9.680;2023-07-30T23:36:46;14.10;99.90
15160;DHT22;7680;48.800;9.680;2023-07-30T23:41:50;14.10;99.90
15160;DHT22;7680;48.800;9.680;2023-07-30T23:46:53;14.10;99.90
15160;DHT22;7680;48.800;9.680;2023-07-30T23:51:56;14.10;99.90
15160;DHT22;7680;48.800;9.680;2023-07-30T23:57:01;14.00;99.90
